Huvudsida
METAR-TAF:

METAR-TAF

Flygplatser :

Lamezia Termes internationella flygplats

Lamezia Terme, Italien

latitud: 38-54N, longitud: 016-15E, höjd: 15 m

Aktuellt väderrapport

Denna rapport gjordes för 56 minuter sedan, klockan 17:50 UTC
Vind 10 kt från väst
Temperatur 13°C
Fuktighet 82%
Tryck 1017 hPa
Sikt: 9000 m
Få moln på en höjd av 2000 ft

METAR: LICA 281750Z 27010KT 9000 FEW020 13/10 Q1017

Tid: 19:46 (18:46 UTC)

Väderprognos

Denna rapport gjordes för 1 timme och 46 minuter sedan, klockan 17:00 UTC
Prognos gäller från 28 kl. 18 UTC till 29 kl. 18 UTC
Vind 16 kt från väst
Sikt 10 km eller mer
Spridda moln på en höjd av 2000 ft
Spridda moln på en höjd av 4000 ft
Blir
från 28 kl. 20 UTC till 28 kl. 22 UTC
Vind 10 kt från ost

TAF: LICA 281700Z 2818/2918 28016KT 9999 SCT020 SCT040 BECMG 2820/2822 08010KT

Aktuella väderrapporter och prognoser från 4000 flygplatser (METAR- och TAF-rapporter).

De tillgängliga stationerna syns som gula och röda prickar på kartan.

För musen över prickarna för att se namnen på stationerna.

Klicka sedan för att få väderrapporter och prognoser.

För att ändra kartan: Klicka på de gröna knapparna med ett svart kors på för att zooma in; den gröna knappen med ett streck på för att zooma ut; eller på de gröna pilarna för angränsande kartor.


METAR-TAF: